AirNav   Air Wisconsin Up To $57,000 Bonus
 
 713 users online  

WN18 Becker's Landing Airport
Anacortes, Washington, USA

GOING TO ANACORTES?


FAA INFORMATION EFFECTIVE 17 JUNE 2021

Location

FAA Identifier: WN18
Lat/Long: 48-27-24.3750N 122-32-21.6040W
48-27.406250N 122-32.360067W
48.4567708,-122.5393344
(estimated)
Elevation: 155 ft. / 47 m (estimated)
Variation: 21E (1985)
From city: 4 miles SE of ANACORTES, WA
Time zone: UTC -7 (UTC -8 during Standard Time)
Zip code: 98221

Airport Operations

Airport use: Private use. Permission required prior to landing
Activation date: 07/1982
Control tower: no
ARTCC: SEATTLE CENTER
FSS: SEATTLE FLIGHT SERVICE STATION
Attendance: CONTINUOUS
Segmented circle: no

Airport Communications

WX AWOS-3 at BVS (5 nm E): 121.125 (360-757-7767)
WX ASOS at NUW (8 nm SW): PHONE 360-257-8813
WX AWOS-3 at OKH (13 nm SW): 132.775 (360-675-8431)
WX ASOS at FHR (20 nm W): 135.675 (360-378-8491)

Nearby radio navigation aids

VOR radial/distance  VOR name  Freq  Var
CVVr011/14.7PENN COVE VOR/DME117.2019E
HUHr157/29.4WHATCOM VORTAC113.0020E
PAEr322/33.9PAINE VOR/DME110.6020E

 
NDB name  Hdg/Dist  Freq  Var  ID
SKAGIT/BAY VIEW246/4.924016EBVS -... ...- ...
FRIDAY HARBOR083/19.628417EFHR ..-. .... .-.
EDIZ HOOK044/39.433817ENOW -. --- .--

Airport Services

Runway Information

Runway 17/35

Dimensions: 1900 x 75 ft. / 579 x 23 m
Surface: turf
RUNWAY 17  RUNWAY 35
Traffic pattern: leftleft
Obstructions: 75 ft. pline5 ft. fence

Airport Ownership and Management from official FAA records

Ownership: Privately-owned
Owner: LAWRENCE D. BECKER, M.D.
744 PADILLA HEIGHTS
ANACORTES, WA 98221
Phone 206-293-7771
Manager: LAWRENCE D. BECKER, M.D.
744 PADILLA HEIGHTS
ANACORTES, WA 98221
Phone 206-293-7771

Airport Operational Statistics

Aircraft based on the field: 2
Single engine airplanes: 2
    

Additional Remarks

RECOMMEND LANDINGS FROM SOUTH RWY 35 EXCEPT IN STRONG SOUTH WINDS.
DEER MAY BE ON FIELD SEPT THRU APR.
FOR CD CTC SEATTLE ARTCC AT 253-351-3694.

Instrument Procedures

There are no published instrument procedures at WN18.

Some nearby airports with instrument procedures:

KBVS - Skagit Regional Airport (5 nm E)
KNUW - Whidbey Island Naval Air Station (Ault Field) (8 nm SW)
KOKH - AJ Eisenberg Airport (13 nm SW)
KFHR - Friday Harbor Airport (20 nm W)
KBLI - Bellingham International Airport (20 nm N)
 
Loc | Ops | Rwys | IFR | FBO | Links
Com | Nav | Svcs | Stats | Notes
Area around WN18 (Becker's Landing Airport)
 
Road maps at: MapQuest Bing Google
 
Aerial photo
No photo
 
Sectional chart

 
Airport distance calculator
Flying to Becker's Landing Airport? Find the distance to fly.

From to WN18

Sunrise and sunset
Times for 19-Jun-2021
 Local
(UTC-7)
 Zulu
(UTC)
Morning civil twilight04:2711:27
Sunrise05:0912:09
Sunset21:1404:14
Evening civil twilight21:5604:56

Current date and time
Zulu (UTC)  20-Jun-2021 05:21:52
Local (UTC-7)  19-Jun-2021 22:21:52
 
METAR
KBVS 
5nm E 
200455Z AUTO 00000KT 9SM OVC055 17/13 A3003 RMK A01
KNUW 
8nm SW 
200456Z AUTO 22007KT 10SM OVC055 13/10 A3007 RMK AO2 SLP183 T01280100
KFHR 
20nm W 
200453Z AUTO 00000KT 10SM BKN050 12/11 A3004 RMK AO2 SLP173 T01220106 TSNO $
TAF
KNUW 
8nm SW 
1923/2023 23007KT 9999 SCT050 BKN160 QNH3001INS FM200200 27012G18KT 9999 SCT015 BKN040 QNH3002INS FM201200 29006KT 9999 SCT012 BKN025 QNH3006INS TEMPO 2014/2018 27011KT 9000 BR BKN020 FM201800 29008KT 9999 SCT0008 QNH3000INS T11/2013Z T19/2023Z FS30165
NOTAMs
Click for the latest NOTAMs
NOTAMs are issued by the DoD/FAA and will open in a separate window not controlled by AirNav.

 

 
 

Would you like to see your business listed on this page?

 If your business provides an interesting product or service to pilots, flight crews, aircraft, or users of the Becker's Landing Airport, you should consider listing it here.  To start the listing process, click on the button below
 
Add a business
 

Other Pages about Becker's Landing Airport

Update a link
 
Copyright © AirNav, LLC. All rights reserved. Privacy Policy  Contact